sensor_id;sensor_type;location;lat;lon;timestamp;P1;durP1;ratioP1;P2;durP2;ratioP2
47529;SDS011;33272;51.922;7.730;2022-12-24T00:02:26;5.73;;;2.07;;
47529;SDS011;33272;51.922;7.730;2022-12-24T00:04:53;7.83;;;3.23;;
47529;SDS011;33272;51.922;7.730;2022-12-24T00:07:20;8.47;;;3.33;;
47529;SDS011;33272;51.922;7.730;2022-12-24T00:09:47;8.13;;;3.40;;
47529;SDS011;33272;51.922;7.730;2022-12-24T00:12:14;10.10;;;3.07;;
47529;SDS011;33272;51.922;7.730;2022-12-24T00:14:41;9.63;;;2.97;;
47529;SDS011;33272;51.922;7.730;2022-12-24T00:17:08;10.67;;;3.90;;
47529;SDS011;33272;51.922;7.730;2022-12-24T00:19:36;8.50;;;2.90;;
47529;SDS011;33272;51.922;7.730;2022-12-24T00:22:03;8.57;;;3.90;;
47529;SDS011;33272;51.922;7.730;2022-12-24T00:24:30;10.43;;;3.70;;
47529;SDS011;33272;51.922;7.730;2022-12-24T00:26:57;7.27;;;3.23;;
47529;SDS011;33272;51.922;7.730;2022-12-24T00:29:24;10.77;;;3.73;;
47529;SDS011;33272;51.922;7.730;2022-12-24T00:31:51;10.83;;;3.10;;
47529;SDS011;33272;51.922;7.730;2022-12-24T00:34:18;8.63;;;3.23;;
47529;SDS011;33272;51.922;7.730;2022-12-24T00:36:46;9.73;;;3.33;;
47529;SDS011;33272;51.922;7.730;2022-12-24T00:39:13;10.87;;;4.07;;
47529;SDS011;33272;51.922;7.730;2022-12-24T00:41:40;8.80;;;3.33;;
47529;SDS011;33272;51.922;7.730;2022-12-24T00:44:07;11.53;;;3.10;;
47529;SDS011;33272;51.922;7.730;2022-12-24T00:46:36;10.47;;;2.70;;
47529;SDS011;33272;51.922;7.730;2022-12-24T00:49:05;9.20;;;3.13;;
47529;SDS011;33272;51.922;7.730;2022-12-24T00:51:33;10.03;;;3.10;;
47529;SDS011;33272;51.922;7.730;2022-12-24T00:54:03;8.60;;;3.43;;
47529;SDS011;33272;51.922;7.730;2022-12-24T00:56:31;11.83;;;3.83;;
47529;SDS011;33272;51.922;7.730;2022-12-24T00:58:58;10.90;;;3.77;;
47529;SDS011;33272;51.922;7.730;2022-12-24T01:01:26;10.90;;;3.73;;
47529;SDS011;33272;51.922;7.730;2022-12-24T01:03:53;17.83;;;5.03;;
47529;SDS011;33272;51.922;7.730;2022-12-24T01:06:41;10.70;;;3.70;;
47529;SDS011;33272;51.922;7.730;2022-12-24T01:09:09;14.33;;;4.73;;
47529;SDS011;33272;51.922;7.730;2022-12-24T01:11:36;16.83;;;4.70;;
47529;SDS011;33272;51.922;7.730;2022-12-24T01:14:03;14.87;;;4.70;;
47529;SDS011;33272;51.922;7.730;2022-12-24T01:16:30;12.70;;;4.63;;
47529;SDS011;33272;51.922;7.730;2022-12-24T01:18:57;12.87;;;4.37;;
47529;SDS011;33272;51.922;7.730;2022-12-24T01:21:24;19.23;;;6.07;;
47529;SDS011;33272;51.922;7.730;2022-12-24T01:23:51;17.33;;;5.13;;
47529;SDS011;33272;51.922;7.730;2022-12-24T01:26:19;16.03;;;4.70;;
47529;SDS011;33272;51.922;7.730;2022-12-24T01:28:46;15.00;;;4.73;;
47529;SDS011;33272;51.922;7.730;2022-12-24T01:31:14;16.17;;;5.10;;
47529;SDS011;33272;51.922;7.730;2022-12-24T01:33:44;15.20;;;5.00;;
47529;SDS011;33272;51.922;7.730;2022-12-24T01:36:13;18.87;;;5.83;;
47529;SDS011;33272;51.922;7.730;2022-12-24T01:38:41;13.23;;;4.97;;
47529;SDS011;33272;51.922;7.730;2022-12-24T01:41:12;14.60;;;4.93;;
47529;SDS011;33272;51.922;7.730;2022-12-24T01:46:52;18.23;;;5.77;;
47529;SDS011;33272;51.922;7.730;2022-12-24T01:49:22;11.97;;;4.83;;
47529;SDS011;33272;51.922;7.730;2022-12-24T01:51:50;16.27;;;5.10;;
47529;SDS011;33272;51.922;7.730;2022-12-24T01:54:21;16.13;;;4.73;;
47529;SDS011;33272;51.922;7.730;2022-12-24T01:56:54;14.93;;;5.30;;
47529;SDS011;33272;51.922;7.730;2022-12-24T01:59:29;15.97;;;5.53;;
47529;SDS011;33272;51.922;7.730;2022-12-24T02:01:57;19.77;;;5.93;;
47529;SDS011;33272;51.922;7.730;2022-12-24T02:04:27;19.23;;;5.33;;
47529;SDS011;33272;51.922;7.730;2022-12-24T02:06:59;16.90;;;5.80;;
47529;SDS011;33272;51.922;7.730;2022-12-24T02:09:26;15.57;;;5.20;;
47529;SDS011;33272;51.922;7.730;2022-12-24T02:11:54;14.67;;;4.87;;
47529;SDS011;33272;51.922;7.730;2022-12-24T02:14:22;15.50;;;5.20;;
47529;SDS011;33272;51.922;7.730;2022-12-24T02:16:52;15.07;;;5.80;;
47529;SDS011;33272;51.922;7.730;2022-12-24T02:22:53;21.70;;;6.13;;
47529;SDS011;33272;51.922;7.730;2022-12-24T02:25:58;20.13;;;5.20;;
47529;SDS011;33272;51.922;7.730;2022-12-24T02:28:48;16.57;;;5.53;;
47529;SDS011;33272;51.922;7.730;2022-12-24T02:31:39;17.20;;;5.03;;
47529;SDS011;33272;51.922;7.730;2022-12-24T02:34:11;15.73;;;5.27;;
47529;SDS011;33272;51.922;7.730;2022-12-24T02:36:45;19.93;;;5.03;;
47529;SDS011;33272;51.922;7.730;2022-12-24T02:39:21;19.60;;;6.03;;
47529;SDS011;33272;51.922;7.730;2022-12-24T02:41:54;21.80;;;6.13;;
47529;SDS011;33272;51.922;7.730;2022-12-24T02:44:35;15.07;;;5.27;;
47529;SDS011;33272;51.922;7.730;2022-12-24T02:47:09;21.03;;;5.30;;
47529;SDS011;33272;51.922;7.730;2022-12-24T02:49:41;23.13;;;5.53;;
47529;SDS011;33272;51.922;7.730;2022-12-24T02:54:54;20.63;;;6.03;;
47529;SDS011;33272;51.922;7.730;2022-12-24T02:57:24;18.23;;;5.80;;
47529;SDS011;33272;51.922;7.730;2022-12-24T03:00:03;19.60;;;6.17;;
47529;SDS011;33272;51.922;7.730;2022-12-24T03:02:38;20.07;;;5.43;;
47529;SDS011;33272;51.922;7.730;2022-12-24T03:05:21;18.80;;;5.27;;
47529;SDS011;33272;51.922;7.730;2022-12-24T03:07:58;16.10;;;4.80;;
47529;SDS011;33272;51.922;7.730;2022-12-24T03:10:33;19.33;;;4.80;;
47529;SDS011;33272;51.922;7.730;2022-12-24T03:13:09;18.00;;;6.43;;
47529;SDS011;33272;51.922;7.730;2022-12-24T03:15:40;21.77;;;5.13;;
47529;SDS011;33272;51.922;7.730;2022-12-24T03:18:11;16.90;;;5.17;;
47529;SDS011;33272;51.922;7.730;2022-12-24T03:20:43;15.40;;;5.00;;
47529;SDS011;33272;51.922;7.730;2022-12-24T03:23:13;12.67;;;5.10;;
47529;SDS011;33272;51.922;7.730;2022-12-24T03:25:41;18.13;;;5.43;;
47529;SDS011;33272;51.922;7.730;2022-12-24T03:28:10;14.13;;;5.57;;
47529;SDS011;33272;51.922;7.730;2022-12-24T03:30:43;20.00;;;5.93;;
47529;SDS011;33272;51.922;7.730;2022-12-24T03:33:16;17.40;;;6.03;;
47529;SDS011;33272;51.922;7.730;2022-12-24T03:35:43;17.87;;;5.70;;
47529;SDS011;33272;51.922;7.730;2022-12-24T03:38:11;20.57;;;6.00;;
47529;SDS011;33272;51.922;7.730;2022-12-24T03:40:38;20.00;;;6.33;;
47529;SDS011;33272;51.922;7.730;2022-12-24T03:43:05;21.77;;;6.17;;
47529;SDS011;33272;51.922;7.730;2022-12-24T03:45:32;18.37;;;5.77;;
47529;SDS011;33272;51.922;7.730;2022-12-24T03:47:59;23.40;;;5.73;;
47529;SDS011;33272;51.922;7.730;2022-12-24T03:50:27;19.93;;;5.90;;
47529;SDS011;33272;51.922;7.730;2022-12-24T03:52:54;18.27;;;5.33;;
47529;SDS011;33272;51.922;7.730;2022-12-24T03:55:21;16.30;;;5.63;;
47529;SDS011;33272;51.922;7.730;2022-12-24T03:57:48;15.87;;;5.87;;
47529;SDS011;33272;51.922;7.730;2022-12-24T04:00:16;22.97;;;6.87;;
47529;SDS011;33272;51.922;7.730;2022-12-24T04:02:44;16.97;;;5.80;;
47529;SDS011;33272;51.922;7.730;2022-12-24T04:05:12;18.17;;;6.43;;
47529;SDS011;33272;51.922;7.730;2022-12-24T04:07:43;15.37;;;5.47;;
47529;SDS011;33272;51.922;7.730;2022-12-24T04:10:10;17.70;;;5.47;;
47529;SDS011;33272;51.922;7.730;2022-12-24T04:12:38;19.93;;;6.10;;
47529;SDS011;33272;51.922;7.730;2022-12-24T04:15:06;20.67;;;5.13;;
47529;SDS011;33272;51.922;7.730;2022-12-24T04:17:34;22.67;;;6.20;;
47529;SDS011;33272;51.922;7.730;2022-12-24T04:20:01;19.23;;;5.60;;
47529;SDS011;33272;51.922;7.730;2022-12-24T04:22:29;16.33;;;6.07;;
47529;SDS011;33272;51.922;7.730;2022-12-24T04:24:57;21.23;;;6.03;;
47529;SDS011;33272;51.922;7.730;2022-12-24T04:27:24;19.93;;;5.77;;
47529;SDS011;33272;51.922;7.730;2022-12-24T04:29:51;16.13;;;5.67;;
47529;SDS011;33272;51.922;7.730;2022-12-24T04:32:18;19.17;;;5.40;;
47529;SDS011;33272;51.922;7.730;2022-12-24T04:34:45;17.87;;;6.07;;
47529;SDS011;33272;51.922;7.730;2022-12-24T04:37:12;22.10;;;6.53;;
47529;SDS011;33272;51.922;7.730;2022-12-24T04:39:39;19.07;;;6.67;;
47529;SDS011;33272;51.922;7.730;2022-12-24T04:42:07;17.47;;;6.07;;
47529;SDS011;33272;51.922;7.730;2022-12-24T04:44:34;22.10;;;7.27;;
47529;SDS011;33272;51.922;7.730;2022-12-24T04:47:01;16.77;;;5.63;;
47529;SDS011;33272;51.922;7.730;2022-12-24T04:49:28;16.67;;;6.53;;
47529;SDS011;33272;51.922;7.730;2022-12-24T04:51:55;19.47;;;6.20;;
47529;SDS011;33272;51.922;7.730;2022-12-24T04:54:22;19.83;;;5.77;;
47529;SDS011;33272;51.922;7.730;2022-12-24T04:56:49;20.60;;;6.23;;
47529;SDS011;33272;51.922;7.730;2022-12-24T04:59:18;22.00;;;7.00;;
47529;SDS011;33272;51.922;7.730;2022-12-24T05:01:45;18.90;;;6.80;;
47529;SDS011;33272;51.922;7.730;2022-12-24T05:04:12;29.50;;;7.47;;
47529;SDS011;33272;51.922;7.730;2022-12-24T05:06:38;17.67;;;5.77;;
47529;SDS011;33272;51.922;7.730;2022-12-24T05:09:05;23.03;;;7.53;;
47529;SDS011;33272;51.922;7.730;2022-12-24T05:11:33;22.77;;;6.63;;
47529;SDS011;33272;51.922;7.730;2022-12-24T05:13:59;18.40;;;6.30;;
47529;SDS011;33272;51.922;7.730;2022-12-24T05:16:28;26.57;;;6.47;;
47529;SDS011;33272;51.922;7.730;2022-12-24T05:18:55;14.73;;;5.83;;
47529;SDS011;33272;51.922;7.730;2022-12-24T05:21:22;20.07;;;6.23;;
47529;SDS011;33272;51.922;7.730;2022-12-24T05:23:50;17.63;;;7.07;;
47529;SDS011;33272;51.922;7.730;2022-12-24T05:26:36;20.47;;;6.67;;
47529;SDS011;33272;51.922;7.730;2022-12-24T05:29:08;21.43;;;7.50;;
47529;SDS011;33272;51.922;7.730;2022-12-24T05:31:38;24.30;;;7.83;;
47529;SDS011;33272;51.922;7.730;2022-12-24T05:34:07;20.47;;;7.40;;
47529;SDS011;33272;51.922;7.730;2022-12-24T05:36:34;23.00;;;8.00;;
47529;SDS011;33272;51.922;7.730;2022-12-24T05:39:01;20.50;;;6.80;;
47529;SDS011;33272;51.922;7.730;2022-12-24T05:41:29;23.27;;;8.03;;
47529;SDS011;33272;51.922;7.730;2022-12-24T05:43:57;21.00;;;7.13;;
47529;SDS011;33272;51.922;7.730;2022-12-24T05:46:24;20.23;;;7.73;;
47529;SDS011;33272;51.922;7.730;2022-12-24T05:48:52;21.67;;;7.77;;
47529;SDS011;33272;51.922;7.730;2022-12-24T05:51:20;23.57;;;7.70;;
47529;SDS011;33272;51.922;7.730;2022-12-24T05:53:48;20.33;;;7.80;;
47529;SDS011;33272;51.922;7.730;2022-12-24T05:56:18;21.50;;;8.03;;
47529;SDS011;33272;51.922;7.730;2022-12-24T05:58:47;20.33;;;7.13;;
47529;SDS011;33272;51.922;7.730;2022-12-24T06:01:16;20.30;;;6.80;;
47529;SDS011;33272;51.922;7.730;2022-12-24T06:03:43;22.40;;;7.27;;
47529;SDS011;33272;51.922;7.730;2022-12-24T06:06:12;21.67;;;7.03;;
47529;SDS011;33272;51.922;7.730;2022-12-24T06:08:43;25.90;;;8.03;;
47529;SDS011;33272;51.922;7.730;2022-12-24T06:11:11;24.50;;;6.93;;
47529;SDS011;33272;51.922;7.730;2022-12-24T06:13:40;22.10;;;7.07;;
47529;SDS011;33272;51.922;7.730;2022-12-24T06:16:09;20.20;;;7.47;;
47529;SDS011;33272;51.922;7.730;2022-12-24T06:18:41;24.80;;;6.30;;
47529;SDS011;33272;51.922;7.730;2022-12-24T06:21:08;23.03;;;6.53;;
47529;SDS011;33272;51.922;7.730;2022-12-24T06:23:38;19.87;;;7.00;;
47529;SDS011;33272;51.922;7.730;2022-12-24T06:26:08;21.43;;;7.70;;
47529;SDS011;33272;51.922;7.730;2022-12-24T06:28:38;23.40;;;6.93;;
47529;SDS011;33272;51.922;7.730;2022-12-24T06:31:06;19.20;;;7.23;;
47529;SDS011;33272;51.922;7.730;2022-12-24T06:33:37;17.20;;;6.33;;
47529;SDS011;33272;51.922;7.730;2022-12-24T06:36:05;20.40;;;7.50;;
47529;SDS011;33272;51.922;7.730;2022-12-24T06:38:32;25.37;;;6.80;;
47529;SDS011;33272;51.922;7.730;2022-12-24T06:41:03;25.40;;;7.30;;
47529;SDS011;33272;51.922;7.730;2022-12-24T06:43:31;20.83;;;6.63;;
47529;SDS011;33272;51.922;7.730;2022-12-24T06:46:00;19.17;;;6.40;;
47529;SDS011;33272;51.922;7.730;2022-12-24T06:48:27;18.80;;;7.43;;
47529;SDS011;33272;51.922;7.730;2022-12-24T06:50:55;18.40;;;6.87;;
47529;SDS011;33272;51.922;7.730;2022-12-24T06:53:22;23.27;;;6.33;;
47529;SDS011;33272;51.922;7.730;2022-12-24T06:55:49;23.03;;;6.97;;
47529;SDS011;33272;51.922;7.730;2022-12-24T06:58:17;19.97;;;7.10;;
47529;SDS011;33272;51.922;7.730;2022-12-24T07:00:46;13.80;;;6.43;;
47529;SDS011;33272;51.922;7.730;2022-12-24T07:03:13;17.73;;;6.67;;
47529;SDS011;33272;51.922;7.730;2022-12-24T07:05:40;19.17;;;6.73;;
47529;SDS011;33272;51.922;7.730;2022-12-24T07:08:07;22.60;;;6.77;;
47529;SDS011;33272;51.922;7.730;2022-12-24T07:10:34;21.37;;;6.93;;
47529;SDS011;33272;51.922;7.730;2022-12-24T07:13:01;22.13;;;6.73;;
47529;SDS011;33272;51.922;7.730;2022-12-24T07:15:30;21.03;;;6.47;;
47529;SDS011;33272;51.922;7.730;2022-12-24T07:17:57;18.10;;;7.23;;
47529;SDS011;33272;51.922;7.730;2022-12-24T07:20:24;20.27;;;7.27;;
47529;SDS011;33272;51.922;7.730;2022-12-24T07:22:51;14.40;;;5.73;;
47529;SDS011;33272;51.922;7.730;2022-12-24T07:25:17;15.13;;;6.23;;
47529;SDS011;33272;51.922;7.730;2022-12-24T07:27:45;15.10;;;6.50;;
47529;SDS011;33272;51.922;7.730;2022-12-24T07:30:12;16.17;;;6.27;;
47529;SDS011;33272;51.922;7.730;2022-12-24T07:32:41;15.90;;;6.27;;
47529;SDS011;33272;51.922;7.730;2022-12-24T07:35:08;16.67;;;6.10;;
47529;SDS011;33272;51.922;7.730;2022-12-24T07:37:35;15.77;;;6.27;;
47529;SDS011;33272;51.922;7.730;2022-12-24T07:40:03;15.90;;;6.63;;
47529;SDS011;33272;51.922;7.730;2022-12-24T07:42:33;21.87;;;6.63;;
47529;SDS011;33272;51.922;7.730;2022-12-24T07:45:00;16.07;;;6.50;;
47529;SDS011;33272;51.922;7.730;2022-12-24T07:47:27;19.00;;;5.90;;
47529;SDS011;33272;51.922;7.730;2022-12-24T07:49:55;13.73;;;5.47;;
47529;SDS011;33272;51.922;7.730;2022-12-24T07:52:22;14.60;;;6.07;;
47529;SDS011;33272;51.922;7.730;2022-12-24T07:54:49;17.57;;;6.07;;
47529;SDS011;33272;51.922;7.730;2022-12-24T07:57:16;14.77;;;5.97;;
47529;SDS011;33272;51.922;7.730;2022-12-24T07:59:43;12.73;;;5.83;;
47529;SDS011;33272;51.922;7.730;2022-12-24T08:02:10;18.70;;;6.17;;
47529;SDS011;33272;51.922;7.730;2022-12-24T08:04:37;18.80;;;6.30;;
47529;SDS011;33272;51.922;7.730;2022-12-24T08:07:06;14.83;;;6.50;;
47529;SDS011;33272;51.922;7.730;2022-12-24T08:09:34;18.63;;;5.57;;
47529;SDS011;33272;51.922;7.730;2022-12-24T08:12:01;12.73;;;5.30;;
47529;SDS011;33272;51.922;7.730;2022-12-24T08:14:29;15.87;;;5.30;;
47529;SDS011;33272;51.922;7.730;2022-12-24T08:16:56;14.13;;;5.77;;
47529;SDS011;33272;51.922;7.730;2022-12-24T08:19:23;20.73;;;6.37;;
47529;SDS011;33272;51.922;7.730;2022-12-24T08:21:50;15.03;;;6.07;;
47529;SDS011;33272;51.922;7.730;2022-12-24T08:24:19;18.40;;;6.07;;
47529;SDS011;33272;51.922;7.730;2022-12-24T08:26:46;16.27;;;5.57;;
47529;SDS011;33272;51.922;7.730;2022-12-24T08:29:13;18.77;;;5.60;;
47529;SDS011;33272;51.922;7.730;2022-12-24T08:31:40;16.23;;;6.10;;
47529;SDS011;33272;51.922;7.730;2022-12-24T08:34:07;16.63;;;5.60;;
47529;SDS011;33272;51.922;7.730;2022-12-24T08:36:36;14.00;;;6.37;;
47529;SDS011;33272;51.922;7.730;2022-12-24T08:39:02;18.27;;;5.93;;
47529;SDS011;33272;51.922;7.730;2022-12-24T08:41:34;16.60;;;6.27;;
47529;SDS011;33272;51.922;7.730;2022-12-24T08:44:01;20.07;;;6.97;;
47529;SDS011;33272;51.922;7.730;2022-12-24T08:46:28;20.00;;;6.10;;
47529;SDS011;33272;51.922;7.730;2022-12-24T08:48:55;17.67;;;7.87;;
47529;SDS011;33272;51.922;7.730;2022-12-24T08:51:22;16.50;;;7.30;;
47529;SDS011;33272;51.922;7.730;2022-12-24T08:53:49;15.57;;;7.17;;
47529;SDS011;33272;51.922;7.730;2022-12-24T08:56:16;17.13;;;6.00;;
47529;SDS011;33272;51.922;7.730;2022-12-24T08:58:45;17.47;;;7.30;;
47529;SDS011;33272;51.922;7.730;2022-12-24T09:01:13;16.77;;;5.93;;
47529;SDS011;33272;51.922;7.730;2022-12-24T09:03:42;12.17;;;5.00;;
47529;SDS011;33272;51.922;7.730;2022-12-24T09:06:10;18.87;;;6.37;;
47529;SDS011;33272;51.922;7.730;2022-12-24T09:08:37;17.00;;;5.97;;
47529;SDS011;33272;51.922;7.730;2022-12-24T09:11:05;15.93;;;5.47;;
47529;SDS011;33272;51.922;7.730;2022-12-24T09:13:35;18.63;;;7.00;;
47529;SDS011;33272;51.922;7.730;2022-12-24T09:16:04;17.27;;;6.00;;
47529;SDS011;33272;51.922;7.730;2022-12-24T09:18:32;18.57;;;6.10;;
47529;SDS011;33272;51.922;7.730;2022-12-24T09:20:59;17.07;;;6.57;;
47529;SDS011;33272;51.922;7.730;2022-12-24T09:23:27;16.20;;;6.40;;
47529;SDS011;33272;51.922;7.730;2022-12-24T09:25:55;17.17;;;5.33;;
47529;SDS011;33272;51.922;7.730;2022-12-24T09:28:22;13.87;;;5.90;;
47529;SDS011;33272;51.922;7.730;2022-12-24T09:30:56;18.53;;;6.43;;
47529;SDS011;33272;51.922;7.730;2022-12-24T09:33:25;18.30;;;6.13;;
47529;SDS011;33272;51.922;7.730;2022-12-24T09:35:53;16.70;;;5.90;;
47529;SDS011;33272;51.922;7.730;2022-12-24T09:38:20;16.03;;;5.33;;
47529;SDS011;33272;51.922;7.730;2022-12-24T09:40:48;16.27;;;6.10;;
47529;SDS011;33272;51.922;7.730;2022-12-24T09:43:17;16.73;;;5.93;;
47529;SDS011;33272;51.922;7.730;2022-12-24T09:45:48;13.17;;;5.77;;
47529;SDS011;33272;51.922;7.730;2022-12-24T09:48:32;13.73;;;5.67;;
47529;SDS011;33272;51.922;7.730;2022-12-24T09:51:05;12.80;;;4.80;;
47529;SDS011;33272;51.922;7.730;2022-12-24T09:53:36;11.57;;;5.50;;
47529;SDS011;33272;51.922;7.730;2022-12-24T09:56:11;20.20;;;6.37;;
47529;SDS011;33272;51.922;7.730;2022-12-24T09:58:42;16.30;;;5.27;;
47529;SDS011;33272;51.922;7.730;2022-12-24T10:01:13;16.70;;;4.97;;
47529;SDS011;33272;51.922;7.730;2022-12-24T10:03:44;13.30;;;5.20;;
47529;SDS011;33272;51.922;7.730;2022-12-24T10:06:13;16.73;;;5.73;;
47529;SDS011;33272;51.922;7.730;2022-12-24T10:08:48;13.53;;;4.73;;
47529;SDS011;33272;51.922;7.730;2022-12-24T10:11:29;14.00;;;5.40;;
47529;SDS011;33272;51.922;7.730;2022-12-24T10:14:10;17.43;;;5.67;;
47529;SDS011;33272;51.922;7.730;2022-12-24T10:16:53;11.07;;;5.13;;
47529;SDS011;33272;51.922;7.730;2022-12-24T10:19:46;13.73;;;5.43;;
47529;SDS011;33272;51.922;7.730;2022-12-24T10:22:21;13.50;;;5.70;;
47529;SDS011;33272;51.922;7.730;2022-12-24T10:24:58;18.70;;;6.73;;
47529;SDS011;33272;51.922;7.730;2022-12-24T10:27:34;15.40;;;5.73;;
47529;SDS011;33272;51.922;7.730;2022-12-24T10:30:06;20.73;;;6.90;;
47529;SDS011;33272;51.922;7.730;2022-12-24T10:32:40;16.77;;;5.47;;
47529;SDS011;33272;51.922;7.730;2022-12-24T10:35:16;18.90;;;5.50;;
47529;SDS011;33272;51.922;7.730;2022-12-24T10:37:48;14.20;;;5.83;;
47529;SDS011;33272;51.922;7.730;2022-12-24T10:40:19;18.73;;;6.43;;
47529;SDS011;33272;51.922;7.730;2022-12-24T10:42:54;19.70;;;6.30;;
47529;SDS011;33272;51.922;7.730;2022-12-24T10:45:21;18.40;;;6.40;;
47529;SDS011;33272;51.922;7.730;2022-12-24T10:47:53;13.27;;;5.57;;
47529;SDS011;33272;51.922;7.730;2022-12-24T10:50:30;18.50;;;6.80;;
47529;SDS011;33272;51.922;7.730;2022-12-24T10:53:01;21.97;;;7.00;;
47529;SDS011;33272;51.922;7.730;2022-12-24T10:55:39;18.80;;;6.97;;
47529;SDS011;33272;51.922;7.730;2022-12-24T10:58:12;16.43;;;5.73;;
47529;SDS011;33272;51.922;7.730;2022-12-24T11:00:45;20.10;;;6.83;;
47529;SDS011;33272;51.922;7.730;2022-12-24T11:03:23;21.03;;;7.17;;
47529;SDS011;33272;51.922;7.730;2022-12-24T11:08:45;14.67;;;6.03;;
47529;SDS011;33272;51.922;7.730;2022-12-24T11:11:13;18.57;;;6.10;;
47529;SDS011;33272;51.922;7.730;2022-12-24T11:13:44;24.93;;;7.20;;
47529;SDS011;33272;51.922;7.730;2022-12-24T11:16:20;15.47;;;6.47;;
47529;SDS011;33272;51.922;7.730;2022-12-24T11:18:51;13.87;;;6.07;;
47529;SDS011;33272;51.922;7.730;2022-12-24T11:21:23;20.50;;;6.50;;
47529;SDS011;33272;51.922;7.730;2022-12-24T11:23:54;14.10;;;5.23;;
47529;SDS011;33272;51.922;7.730;2022-12-24T11:26:23;15.47;;;6.00;;
47529;SDS011;33272;51.922;7.730;2022-12-24T11:29:13;16.43;;;5.33;;
47529;SDS011;33272;51.922;7.730;2022-12-24T11:31:44;19.90;;;5.93;;
47529;SDS011;33272;51.922;7.730;2022-12-24T11:34:17;16.43;;;6.47;;
47529;SDS011;33272;51.922;7.730;2022-12-24T11:36:56;17.07;;;5.33;;
47529;SDS011;33272;51.922;7.730;2022-12-24T11:39:37;16.07;;;5.63;;
47529;SDS011;33272;51.922;7.730;2022-12-24T11:42:07;20.47;;;6.43;;
47529;SDS011;33272;51.922;7.730;2022-12-24T11:44:51;13.90;;;6.37;;
47529;SDS011;33272;51.922;7.730;2022-12-24T11:47:30;15.90;;;5.13;;
47529;SDS011;33272;51.922;7.730;2022-12-24T11:52:48;16.50;;;5.23;;
47529;SDS011;33272;51.922;7.730;2022-12-24T11:55:20;18.77;;;6.30;;
47529;SDS011;33272;51.922;7.730;2022-12-24T11:57:59;11.50;;;5.03;;
47529;SDS011;33272;51.922;7.730;2022-12-24T12:00:37;18.83;;;5.03;;
47529;SDS011;33272;51.922;7.730;2022-12-24T12:03:07;19.40;;;5.40;;
47529;SDS011;33272;51.922;7.730;2022-12-24T12:05:50;17.30;;;5.70;;
47529;SDS011;33272;51.922;7.730;2022-12-24T12:08:21;16.33;;;6.10;;
47529;SDS011;33272;51.922;7.730;2022-12-24T12:10:48;17.83;;;5.90;;
47529;SDS011;33272;51.922;7.730;2022-12-24T12:13:19;18.70;;;6.90;;
47529;SDS011;33272;51.922;7.730;2022-12-24T12:16:01;23.47;;;6.90;;
47529;SDS011;33272;51.922;7.730;2022-12-24T12:18:40;20.17;;;6.63;;
47529;SDS011;33272;51.922;7.730;2022-12-24T12:21:13;18.73;;;6.40;;
47529;SDS011;33272;51.922;7.730;2022-12-24T12:23:48;15.67;;;5.93;;
47529;SDS011;33272;51.922;7.730;2022-12-24T12:26:18;15.10;;;6.60;;
47529;SDS011;33272;51.922;7.730;2022-12-24T12:28:50;18.23;;;6.27;;
47529;SDS011;33272;51.922;7.730;2022-12-24T12:31:24;20.67;;;5.73;;
47529;SDS011;33272;51.922;7.730;2022-12-24T12:33:59;17.97;;;6.30;;
47529;SDS011;33272;51.922;7.730;2022-12-24T12:36:31;23.13;;;6.33;;
47529;SDS011;33272;51.922;7.730;2022-12-24T12:39:07;13.03;;;4.80;;
47529;SDS011;33272;51.922;7.730;2022-12-24T12:41:39;19.40;;;7.07;;
47529;SDS011;33272;51.922;7.730;2022-12-24T12:44:33;17.10;;;5.93;;
47529;SDS011;33272;51.922;7.730;2022-12-24T12:47:36;17.73;;;5.53;;
47529;SDS011;33272;51.922;7.730;2022-12-24T12:50:17;17.77;;;5.57;;
47529;SDS011;33272;51.922;7.730;2022-12-24T12:52:56;20.73;;;6.03;;
47529;SDS011;33272;51.922;7.730;2022-12-24T12:55:45;17.60;;;5.40;;
47529;SDS011;33272;51.922;7.730;2022-12-24T12:58:21;12.43;;;4.87;;
47529;SDS011;33272;51.922;7.730;2022-12-24T13:00:53;15.80;;;5.27;;
47529;SDS011;33272;51.922;7.730;2022-12-24T13:10:24;15.93;;;5.80;;
47529;SDS011;33272;51.922;7.730;2022-12-24T13:19:57;18.13;;;6.43;;
47529;SDS011;33272;51.922;7.730;2022-12-24T13:22:46;15.10;;;5.60;;
47529;SDS011;33272;51.922;7.730;2022-12-24T13:25:20;15.37;;;5.60;;
47529;SDS011;33272;51.922;7.730;2022-12-24T13:27:53;12.37;;;4.70;;
47529;SDS011;33272;51.922;7.730;2022-12-24T13:30:36;14.20;;;6.13;;
47529;SDS011;33272;51.922;7.730;2022-12-24T13:33:07;13.53;;;5.43;;
47529;SDS011;33272;51.922;7.730;2022-12-24T13:44:23;14.53;;;5.03;;
47529;SDS011;33272;51.922;7.730;2022-12-24T13:46:57;13.77;;;4.67;;
47529;SDS011;33272;51.922;7.730;2022-12-24T13:49:29;16.57;;;5.13;;
47529;SDS011;33272;51.922;7.730;2022-12-24T13:52:13;18.80;;;5.60;;
47529;SDS011;33272;51.922;7.730;2022-12-24T13:55:04;13.30;;;5.47;;
47529;SDS011;33272;51.922;7.730;2022-12-24T13:57:42;17.07;;;5.53;;
47529;SDS011;33272;51.922;7.730;2022-12-24T14:00:33;18.57;;;5.43;;
47529;SDS011;33272;51.922;7.730;2022-12-24T14:03:17;19.30;;;5.60;;
47529;SDS011;33272;51.922;7.730;2022-12-24T14:05:54;19.10;;;5.67;;
47529;SDS011;33272;51.922;7.730;2022-12-24T14:08:25;17.47;;;5.63;;
47529;SDS011;33272;51.922;7.730;2022-12-24T14:10:59;16.73;;;5.77;;
47529;SDS011;33272;51.922;7.730;2022-12-24T14:13:49;14.47;;;5.27;;
47529;SDS011;33272;51.922;7.730;2022-12-24T14:16:47;18.33;;;6.57;;
47529;SDS011;33272;51.922;7.730;2022-12-24T14:19:18;12.77;;;5.83;;
47529;SDS011;33272;51.922;7.730;2022-12-24T14:21:52;18.10;;;5.67;;
47529;SDS011;33272;51.922;7.730;2022-12-24T14:24:26;16.23;;;5.77;;
47529;SDS011;33272;51.922;7.730;2022-12-24T14:27:05;12.73;;;5.93;;
47529;SDS011;33272;51.922;7.730;2022-12-24T14:29:42;16.93;;;6.03;;
47529;SDS011;33272;51.922;7.730;2022-12-24T14:32:16;16.03;;;6.30;;
47529;SDS011;33272;51.922;7.730;2022-12-24T14:34:43;16.53;;;6.57;;
47529;SDS011;33272;51.922;7.730;2022-12-24T14:37:11;15.03;;;5.83;;
47529;SDS011;33272;51.922;7.730;2022-12-24T14:39:40;14.83;;;5.67;;
47529;SDS011;33272;51.922;7.730;2022-12-24T14:42:24;14.90;;;6.47;;
47529;SDS011;33272;51.922;7.730;2022-12-24T14:45:06;14.00;;;5.70;;
47529;SDS011;33272;51.922;7.730;2022-12-24T14:47:47;18.40;;;5.93;;
47529;SDS011;33272;51.922;7.730;2022-12-24T14:50:26;15.93;;;5.60;;
47529;SDS011;33272;51.922;7.730;2022-12-24T14:53:33;13.43;;;5.87;;
47529;SDS011;33272;51.922;7.730;2022-12-24T14:56:16;13.53;;;6.27;;
47529;SDS011;33272;51.922;7.730;2022-12-24T14:58:46;17.70;;;5.90;;
47529;SDS011;33272;51.922;7.730;2022-12-24T15:01:18;16.37;;;6.57;;
47529;SDS011;33272;51.922;7.730;2022-12-24T15:04:03;17.63;;;6.60;;
47529;SDS011;33272;51.922;7.730;2022-12-24T15:06:40;15.13;;;6.17;;
47529;SDS011;33272;51.922;7.730;2022-12-24T15:09:12;21.40;;;7.70;;
47529;SDS011;33272;51.922;7.730;2022-12-24T15:11:44;14.20;;;6.10;;
47529;SDS011;33272;51.922;7.730;2022-12-24T15:14:14;17.80;;;7.13;;
47529;SDS011;33272;51.922;7.730;2022-12-24T15:16:42;16.23;;;7.00;;
47529;SDS011;33272;51.922;7.730;2022-12-24T15:19:21;13.70;;;5.80;;
47529;SDS011;33272;51.922;7.730;2022-12-24T15:21:52;11.93;;;5.40;;
47529;SDS011;33272;51.922;7.730;2022-12-24T15:24:24;17.57;;;6.60;;
47529;SDS011;33272;51.922;7.730;2022-12-24T15:26:53;21.07;;;6.43;;
47529;SDS011;33272;51.922;7.730;2022-12-24T15:29:21;17.67;;;6.63;;
47529;SDS011;33272;51.922;7.730;2022-12-24T15:31:51;17.40;;;7.07;;
47529;SDS011;33272;51.922;7.730;2022-12-24T15:34:25;17.90;;;7.30;;
47529;SDS011;33272;51.922;7.730;2022-12-24T15:37:01;18.40;;;7.57;;
47529;SDS011;33272;51.922;7.730;2022-12-24T15:39:31;18.27;;;7.50;;